sensor_id;sensor_type;location;lat;lon;timestamp;P1;durP1;ratioP1;P2;durP2;ratioP2
10100;SDS011;5090;51.258;4.436;2022-07-24T00:00:42;41.57;;;25.87;;
10100;SDS011;5090;51.258;4.436;2022-07-24T00:03:10;33.17;;;24.53;;
10100;SDS011;5090;51.258;4.436;2022-07-24T00:05:39;33.10;;;25.47;;
10100;SDS011;5090;51.258;4.436;2022-07-24T00:08:07;33.67;;;23.12;;
10100;SDS011;5090;51.258;4.436;2022-07-24T00:10:35;40.07;;;24.97;;
10100;SDS011;5090;51.258;4.436;2022-07-24T00:13:04;30.77;;;23.20;;
10100;SDS011;5090;51.258;4.436;2022-07-24T00:15:32;31.67;;;24.27;;
10100;SDS011;5090;51.258;4.436;2022-07-24T00:18:00;33.90;;;23.80;;
10100;SDS011;5090;51.258;4.436;2022-07-24T00:20:28;32.13;;;22.30;;
10100;SDS011;5090;51.258;4.436;2022-07-24T00:22:56;32.03;;;22.47;;
10100;SDS011;5090;51.258;4.436;2022-07-24T00:25:25;30.65;;;21.37;;
10100;SDS011;5090;51.258;4.436;2022-07-24T00:27:53;31.43;;;20.33;;
10100;SDS011;5090;51.258;4.436;2022-07-24T00:30:22;37.87;;;22.13;;
10100;SDS011;5090;51.258;4.436;2022-07-24T00:32:50;28.60;;;20.57;;
10100;SDS011;5090;51.258;4.436;2022-07-24T00:35:18;28.10;;;21.13;;
10100;SDS011;5090;51.258;4.436;2022-07-24T00:37:47;32.33;;;21.07;;
10100;SDS011;5090;51.258;4.436;2022-07-24T00:40:15;29.20;;;19.73;;
10100;SDS011;5090;51.258;4.436;2022-07-24T00:42:43;27.53;;;19.23;;
10100;SDS011;5090;51.258;4.436;2022-07-24T00:45:12;30.90;;;19.93;;
10100;SDS011;5090;51.258;4.436;2022-07-24T00:47:40;31.10;;;18.97;;
10100;SDS011;5090;51.258;4.436;2022-07-24T00:50:09;29.03;;;18.13;;
10100;SDS011;5090;51.258;4.436;2022-07-24T00:52:37;28.67;;;18.20;;
10100;SDS011;5090;51.258;4.436;2022-07-24T00:55:06;32.43;;;18.23;;
10100;SDS011;5090;51.258;4.436;2022-07-24T00:57:34;32.17;;;19.03;;
10100;SDS011;5090;51.258;4.436;2022-07-24T01:00:04;25.97;;;18.00;;
10100;SDS011;5090;51.258;4.436;2022-07-24T01:02:33;29.50;;;18.03;;
10100;SDS011;5090;51.258;4.436;2022-07-24T01:05:02;34.43;;;21.27;;
10100;SDS011;5090;51.258;4.436;2022-07-24T01:07:29;31.63;;;20.27;;
10100;SDS011;5090;51.258;4.436;2022-07-24T01:09:57;26.33;;;18.33;;
10100;SDS011;5090;51.258;4.436;2022-07-24T01:12:26;37.33;;;22.60;;
10100;SDS011;5090;51.258;4.436;2022-07-24T01:14:54;31.80;;;20.77;;
10100;SDS011;5090;51.258;4.436;2022-07-24T01:17:22;39.40;;;24.27;;
10100;SDS011;5090;51.258;4.436;2022-07-24T01:19:51;31.30;;;21.53;;
10100;SDS011;5090;51.258;4.436;2022-07-24T01:22:19;35.40;;;22.53;;
10100;SDS011;5090;51.258;4.436;2022-07-24T01:24:47;37.50;;;22.03;;
10100;SDS011;5090;51.258;4.436;2022-07-24T01:27:15;37.77;;;21.33;;
10100;SDS011;5090;51.258;4.436;2022-07-24T01:29:43;31.87;;;21.10;;
10100;SDS011;5090;51.258;4.436;2022-07-24T01:32:12;33.23;;;21.10;;
10100;SDS011;5090;51.258;4.436;2022-07-24T01:34:40;29.57;;;18.40;;
10100;SDS011;5090;51.258;4.436;2022-07-24T01:37:08;27.77;;;19.07;;
10100;SDS011;5090;51.258;4.436;2022-07-24T01:39:37;33.47;;;18.57;;
10100;SDS011;5090;51.258;4.436;2022-07-24T01:42:06;30.97;;;20.03;;
10100;SDS011;5090;51.258;4.436;2022-07-24T01:44:34;31.70;;;19.73;;
10100;SDS011;5090;51.258;4.436;2022-07-24T01:47:02;31.50;;;19.37;;
10100;SDS011;5090;51.258;4.436;2022-07-24T01:49:30;32.97;;;18.83;;
10100;SDS011;5090;51.258;4.436;2022-07-24T01:51:59;30.77;;;19.80;;
10100;SDS011;5090;51.258;4.436;2022-07-24T01:54:27;34.53;;;19.57;;
10100;SDS011;5090;51.258;4.436;2022-07-24T01:56:55;27.80;;;19.80;;
10100;SDS011;5090;51.258;4.436;2022-07-24T01:59:24;26.97;;;18.83;;
10100;SDS011;5090;51.258;4.436;2022-07-24T02:01:52;27.03;;;19.20;;
10100;SDS011;5090;51.258;4.436;2022-07-24T02:04:20;32.17;;;20.20;;
10100;SDS011;5090;51.258;4.436;2022-07-24T02:06:48;27.20;;;19.13;;
10100;SDS011;5090;51.258;4.436;2022-07-24T02:09:17;29.73;;;19.67;;
10100;SDS011;5090;51.258;4.436;2022-07-24T02:11:45;29.13;;;18.47;;
10100;SDS011;5090;51.258;4.436;2022-07-24T02:14:13;29.57;;;19.70;;
10100;SDS011;5090;51.258;4.436;2022-07-24T02:16:42;30.40;;;20.33;;
10100;SDS011;5090;51.258;4.436;2022-07-24T02:19:10;30.23;;;20.20;;
10100;SDS011;5090;51.258;4.436;2022-07-24T02:21:38;31.97;;;20.00;;
10100;SDS011;5090;51.258;4.436;2022-07-24T02:24:06;32.87;;;19.87;;
10100;SDS011;5090;51.258;4.436;2022-07-24T02:26:35;31.23;;;21.00;;
10100;SDS011;5090;51.258;4.436;2022-07-24T02:29:03;29.93;;;19.87;;
10100;SDS011;5090;51.258;4.436;2022-07-24T02:31:31;30.03;;;19.30;;
10100;SDS011;5090;51.258;4.436;2022-07-24T02:34:00;30.17;;;20.47;;
10100;SDS011;5090;51.258;4.436;2022-07-24T02:36:28;29.10;;;19.53;;
10100;SDS011;5090;51.258;4.436;2022-07-24T02:38:56;27.43;;;18.23;;
10100;SDS011;5090;51.258;4.436;2022-07-24T02:41:25;29.30;;;18.83;;
10100;SDS011;5090;51.258;4.436;2022-07-24T02:43:53;24.77;;;18.17;;
10100;SDS011;5090;51.258;4.436;2022-07-24T02:46:21;26.73;;;17.17;;
10100;SDS011;5090;51.258;4.436;2022-07-24T02:48:49;25.23;;;17.17;;
10100;SDS011;5090;51.258;4.436;2022-07-24T02:51:18;25.23;;;16.70;;
10100;SDS011;5090;51.258;4.436;2022-07-24T02:53:46;22.80;;;15.50;;
10100;SDS011;5090;51.258;4.436;2022-07-24T02:56:14;24.03;;;16.17;;
10100;SDS011;5090;51.258;4.436;2022-07-24T02:58:42;21.33;;;14.63;;
10100;SDS011;5090;51.258;4.436;2022-07-24T03:01:10;22.27;;;14.60;;
10100;SDS011;5090;51.258;4.436;2022-07-24T03:03:39;19.23;;;14.13;;
10100;SDS011;5090;51.258;4.436;2022-07-24T03:06:07;22.17;;;13.87;;
10100;SDS011;5090;51.258;4.436;2022-07-24T03:08:35;25.43;;;14.70;;
10100;SDS011;5090;51.258;4.436;2022-07-24T03:11:03;20.37;;;14.27;;
10100;SDS011;5090;51.258;4.436;2022-07-24T03:13:31;22.60;;;13.93;;
10100;SDS011;5090;51.258;4.436;2022-07-24T03:16:00;21.57;;;14.90;;
10100;SDS011;5090;51.258;4.436;2022-07-24T03:18:28;22.67;;;14.80;;
10100;SDS011;5090;51.258;4.436;2022-07-24T03:20:56;22.03;;;14.80;;
10100;SDS011;5090;51.258;4.436;2022-07-24T03:23:24;19.57;;;14.50;;
10100;SDS011;5090;51.258;4.436;2022-07-24T03:25:52;17.60;;;13.10;;
10100;SDS011;5090;51.258;4.436;2022-07-24T03:28:21;23.33;;;14.00;;
10100;SDS011;5090;51.258;4.436;2022-07-24T03:30:49;17.63;;;13.83;;
10100;SDS011;5090;51.258;4.436;2022-07-24T03:33:17;19.50;;;12.93;;
10100;SDS011;5090;51.258;4.436;2022-07-24T03:35:45;19.57;;;12.87;;
10100;SDS011;5090;51.258;4.436;2022-07-24T03:38:13;17.50;;;12.93;;
10100;SDS011;5090;51.258;4.436;2022-07-24T03:40:42;18.30;;;12.27;;
10100;SDS011;5090;51.258;4.436;2022-07-24T03:43:10;23.50;;;14.50;;
10100;SDS011;5090;51.258;4.436;2022-07-24T03:45:38;20.67;;;14.77;;
10100;SDS011;5090;51.258;4.436;2022-07-24T03:48:06;21.63;;;14.67;;
10100;SDS011;5090;51.258;4.436;2022-07-24T03:50:34;21.40;;;14.77;;
10100;SDS011;5090;51.258;4.436;2022-07-24T03:53:03;24.00;;;14.47;;
10100;SDS011;5090;51.258;4.436;2022-07-24T03:55:31;20.17;;;14.63;;
10100;SDS011;5090;51.258;4.436;2022-07-24T03:57:59;26.63;;;16.47;;
10100;SDS011;5090;51.258;4.436;2022-07-24T04:00:27;22.13;;;15.73;;
10100;SDS011;5090;51.258;4.436;2022-07-24T04:02:56;19.53;;;14.57;;
10100;SDS011;5090;51.258;4.436;2022-07-24T04:05:24;22.63;;;14.57;;
10100;SDS011;5090;51.258;4.436;2022-07-24T04:07:52;17.97;;;13.30;;
10100;SDS011;5090;51.258;4.436;2022-07-24T04:10:20;18.90;;;14.03;;
10100;SDS011;5090;51.258;4.436;2022-07-24T04:12:48;20.20;;;12.80;;
10100;SDS011;5090;51.258;4.436;2022-07-24T04:15:17;19.97;;;12.47;;
10100;SDS011;5090;51.258;4.436;2022-07-24T04:17:45;19.33;;;12.57;;
10100;SDS011;5090;51.258;4.436;2022-07-24T04:20:13;17.03;;;12.13;;
10100;SDS011;5090;51.258;4.436;2022-07-24T04:22:41;15.60;;;11.43;;
10100;SDS011;5090;51.258;4.436;2022-07-24T04:25:09;16.83;;;11.73;;
10100;SDS011;5090;51.258;4.436;2022-07-24T04:27:38;20.77;;;12.07;;
10100;SDS011;5090;51.258;4.436;2022-07-24T04:30:06;16.40;;;12.20;;
10100;SDS011;5090;51.258;4.436;2022-07-24T04:32:34;15.00;;;11.53;;
10100;SDS011;5090;51.258;4.436;2022-07-24T04:35:03;16.57;;;11.60;;
10100;SDS011;5090;51.258;4.436;2022-07-24T04:37:31;17.30;;;11.30;;
10100;SDS011;5090;51.258;4.436;2022-07-24T04:39:59;16.20;;;10.70;;
10100;SDS011;5090;51.258;4.436;2022-07-24T04:42:27;15.10;;;10.73;;
10100;SDS011;5090;51.258;4.436;2022-07-24T04:44:56;13.50;;;10.63;;
10100;SDS011;5090;51.258;4.436;2022-07-24T04:47:24;17.03;;;10.67;;
10100;SDS011;5090;51.258;4.436;2022-07-24T04:49:52;18.10;;;10.53;;
10100;SDS011;5090;51.258;4.436;2022-07-24T04:52:20;16.73;;;10.67;;
10100;SDS011;5090;51.258;4.436;2022-07-24T04:54:49;12.53;;;9.50;;
10100;SDS011;5090;51.258;4.436;2022-07-24T04:57:17;11.55;;;8.63;;
10100;SDS011;5090;51.258;4.436;2022-07-24T04:59:45;13.82;;;7.75;;
10100;SDS011;5090;51.258;4.436;2022-07-24T05:02:13;8.70;;;6.68;;
10100;SDS011;5090;51.258;4.436;2022-07-24T05:04:42;9.88;;;6.95;;
10100;SDS011;5090;51.258;4.436;2022-07-24T05:07:11;10.73;;;7.00;;
10100;SDS011;5090;51.258;4.436;2022-07-24T05:09:39;11.20;;;6.78;;
10100;SDS011;5090;51.258;4.436;2022-07-24T05:12:07;7.70;;;5.95;;
10100;SDS011;5090;51.258;4.436;2022-07-24T05:14:36;11.15;;;6.32;;
10100;SDS011;5090;51.258;4.436;2022-07-24T05:17:04;8.73;;;6.30;;
10100;SDS011;5090;51.258;4.436;2022-07-24T05:19:32;8.77;;;6.35;;
10100;SDS011;5090;51.258;4.436;2022-07-24T05:22:00;10.73;;;6.80;;
10100;SDS011;5090;51.258;4.436;2022-07-24T05:24:28;8.50;;;6.00;;
10100;SDS011;5090;51.258;4.436;2022-07-24T05:26:57;8.73;;;6.15;;
10100;SDS011;5090;51.258;4.436;2022-07-24T05:29:25;9.38;;;6.32;;
10100;SDS011;5090;51.258;4.436;2022-07-24T05:31:53;10.45;;;6.07;;
10100;SDS011;5090;51.258;4.436;2022-07-24T05:34:21;9.10;;;5.82;;
10100;SDS011;5090;51.258;4.436;2022-07-24T05:36:49;8.70;;;5.60;;
10100;SDS011;5090;51.258;4.436;2022-07-24T05:39:18;9.60;;;5.18;;
10100;SDS011;5090;51.258;4.436;2022-07-24T05:41:46;9.13;;;6.30;;
10100;SDS011;5090;51.258;4.436;2022-07-24T05:44:14;9.13;;;5.65;;
10100;SDS011;5090;51.258;4.436;2022-07-24T05:46:42;9.63;;;5.72;;
10100;SDS011;5090;51.258;4.436;2022-07-24T05:49:10;7.40;;;5.10;;
10100;SDS011;5090;51.258;4.436;2022-07-24T05:51:39;6.10;;;4.87;;
10100;SDS011;5090;51.258;4.436;2022-07-24T05:54:07;8.07;;;4.50;;
10100;SDS011;5090;51.258;4.436;2022-07-24T05:56:35;6.70;;;4.57;;
10100;SDS011;5090;51.258;4.436;2022-07-24T05:59:03;8.82;;;4.62;;
10100;SDS011;5090;51.258;4.436;2022-07-24T06:01:31;5.68;;;4.20;;
10100;SDS011;5090;51.258;4.436;2022-07-24T06:04:00;8.18;;;4.05;;
10100;SDS011;5090;51.258;4.436;2022-07-24T06:06:28;7.35;;;4.00;;
10100;SDS011;5090;51.258;4.436;2022-07-24T06:08:56;7.45;;;3.97;;
10100;SDS011;5090;51.258;4.436;2022-07-24T06:11:24;10.15;;;4.15;;
10100;SDS011;5090;51.258;4.436;2022-07-24T06:13:53;4.68;;;3.62;;
10100;SDS011;5090;51.258;4.436;2022-07-24T06:16:21;5.25;;;3.20;;
10100;SDS011;5090;51.258;4.436;2022-07-24T06:18:49;4.37;;;2.90;;
10100;SDS011;5090;51.258;4.436;2022-07-24T06:21:17;6.43;;;3.30;;
10100;SDS011;5090;51.258;4.436;2022-07-24T06:23:46;4.40;;;2.92;;
10100;SDS011;5090;51.258;4.436;2022-07-24T06:26:14;4.53;;;3.05;;
10100;SDS011;5090;51.258;4.436;2022-07-24T06:28:42;3.22;;;2.92;;
10100;SDS011;5090;51.258;4.436;2022-07-24T06:31:10;3.47;;;2.42;;
10100;SDS011;5090;51.258;4.436;2022-07-24T06:33:38;3.15;;;2.30;;
10100;SDS011;5090;51.258;4.436;2022-07-24T06:36:07;3.95;;;2.22;;
10100;SDS011;5090;51.258;4.436;2022-07-24T06:38:35;2.50;;;2.30;;
10100;SDS011;5090;51.258;4.436;2022-07-24T06:41:03;5.30;;;2.53;;
10100;SDS011;5090;51.258;4.436;2022-07-24T06:43:32;5.07;;;2.37;;
10100;SDS011;5090;51.258;4.436;2022-07-24T06:46:00;2.72;;;2.08;;
10100;SDS011;5090;51.258;4.436;2022-07-24T06:48:29;2.80;;;1.92;;
10100;SDS011;5090;51.258;4.436;2022-07-24T06:50:58;3.65;;;2.30;;
10100;SDS011;5090;51.258;4.436;2022-07-24T06:53:26;3.10;;;2.20;;
10100;SDS011;5090;51.258;4.436;2022-07-24T06:55:54;3.15;;;2.20;;
10100;SDS011;5090;51.258;4.436;2022-07-24T06:58:22;4.43;;;1.77;;
10100;SDS011;5090;51.258;4.436;2022-07-24T07:00:51;2.40;;;2.00;;
10100;SDS011;5090;51.258;4.436;2022-07-24T07:03:19;3.97;;;2.10;;
10100;SDS011;5090;51.258;4.436;2022-07-24T07:05:48;4.35;;;2.10;;
10100;SDS011;5090;51.258;4.436;2022-07-24T07:08:17;4.87;;;2.50;;
10100;SDS011;5090;51.258;4.436;2022-07-24T07:10:45;2.60;;;2.22;;
10100;SDS011;5090;51.258;4.436;2022-07-24T07:13:14;2.75;;;2.30;;
10100;SDS011;5090;51.258;4.436;2022-07-24T07:15:42;2.83;;;2.17;;
10100;SDS011;5090;51.258;4.436;2022-07-24T07:18:11;2.70;;;2.03;;
10100;SDS011;5090;51.258;4.436;2022-07-24T07:20:39;2.62;;;2.35;;
10100;SDS011;5090;51.258;4.436;2022-07-24T07:23:07;5.57;;;2.25;;
10100;SDS011;5090;51.258;4.436;2022-07-24T07:25:36;3.85;;;2.08;;
10100;SDS011;5090;51.258;4.436;2022-07-24T07:28:05;3.03;;;1.85;;
10100;SDS011;5090;51.258;4.436;2022-07-24T07:30:34;5.30;;;1.98;;
10100;SDS011;5090;51.258;4.436;2022-07-24T07:33:02;1.92;;;1.48;;
10100;SDS011;5090;51.258;4.436;2022-07-24T07:35:30;2.70;;;1.60;;
10100;SDS011;5090;51.258;4.436;2022-07-24T07:37:59;2.72;;;2.05;;
10100;SDS011;5090;51.258;4.436;2022-07-24T07:40:27;3.12;;;1.42;;
10100;SDS011;5090;51.258;4.436;2022-07-24T07:42:55;2.03;;;1.55;;
10100;SDS011;5090;51.258;4.436;2022-07-24T07:45:23;1.95;;;1.62;;
10100;SDS011;5090;51.258;4.436;2022-07-24T07:47:51;1.83;;;1.58;;
10100;SDS011;5090;51.258;4.436;2022-07-24T07:50:20;1.50;;;1.40;;
10100;SDS011;5090;51.258;4.436;2022-07-24T07:52:48;2.55;;;1.80;;
10100;SDS011;5090;51.258;4.436;2022-07-24T07:55:16;1.60;;;1.33;;
10100;SDS011;5090;51.258;4.436;2022-07-24T07:57:44;2.53;;;1.70;;
10100;SDS011;5090;51.258;4.436;2022-07-24T08:00:13;2.97;;;1.67;;
10100;SDS011;5090;51.258;4.436;2022-07-24T08:02:41;2.95;;;1.65;;
10100;SDS011;5090;51.258;4.436;2022-07-24T08:05:09;4.05;;;1.50;;
10100;SDS011;5090;51.258;4.436;2022-07-24T08:07:38;2.05;;;1.73;;
10100;SDS011;5090;51.258;4.436;2022-07-24T08:10:06;2.30;;;1.50;;
10100;SDS011;5090;51.258;4.436;2022-07-24T08:12:34;4.95;;;1.80;;
10100;SDS011;5090;51.258;4.436;2022-07-24T08:15:03;2.60;;;1.40;;
10100;SDS011;5090;51.258;4.436;2022-07-24T08:17:31;3.15;;;1.60;;
10100;SDS011;5090;51.258;4.436;2022-07-24T08:20:00;2.40;;;1.60;;
10100;SDS011;5090;51.258;4.436;2022-07-24T08:22:27;1.98;;;1.50;;
10100;SDS011;5090;51.258;4.436;2022-07-24T08:24:56;2.05;;;1.35;;
10100;SDS011;5090;51.258;4.436;2022-07-24T08:27:24;2.05;;;1.85;;
10100;SDS011;5090;51.258;4.436;2022-07-24T08:29:53;3.55;;;1.80;;
10100;SDS011;5090;51.258;4.436;2022-07-24T08:32:21;3.55;;;1.98;;
10100;SDS011;5090;51.258;4.436;2022-07-24T08:34:49;2.03;;;1.70;;
10100;SDS011;5090;51.258;4.436;2022-07-24T08:37:19;3.97;;;2.10;;
10100;SDS011;5090;51.258;4.436;2022-07-24T08:39:46;1.55;;;1.42;;
10100;SDS011;5090;51.258;4.436;2022-07-24T08:42:14;4.75;;;2.10;;
10100;SDS011;5090;51.258;4.436;2022-07-24T08:44:43;2.72;;;1.85;;
10100;SDS011;5090;51.258;4.436;2022-07-24T08:47:11;2.92;;;1.50;;
10100;SDS011;5090;51.258;4.436;2022-07-24T08:49:39;3.87;;;1.73;;
10100;SDS011;5090;51.258;4.436;2022-07-24T08:52:07;3.53;;;1.37;;
10100;SDS011;5090;51.258;4.436;2022-07-24T08:54:36;3.17;;;1.52;;
10100;SDS011;5090;51.258;4.436;2022-07-24T08:57:04;1.90;;;1.52;;
10100;SDS011;5090;51.258;4.436;2022-07-24T08:59:33;2.65;;;1.77;;
10100;SDS011;5090;51.258;4.436;2022-07-24T09:02:01;2.05;;;1.58;;
10100;SDS011;5090;51.258;4.436;2022-07-24T09:04:31;2.28;;;1.80;;
10100;SDS011;5090;51.258;4.436;2022-07-24T09:06:59;2.12;;;1.55;;
10100;SDS011;5090;51.258;4.436;2022-07-24T09:09:26;2.15;;;1.67;;
10100;SDS011;5090;51.258;4.436;2022-07-24T09:14:31;3.80;;;1.48;;
10100;SDS011;5090;51.258;4.436;2022-07-24T09:17:01;1.60;;;1.48;;
10100;SDS011;5090;51.258;4.436;2022-07-24T09:19:28;4.32;;;1.65;;
10100;SDS011;5090;51.258;4.436;2022-07-24T09:21:56;1.50;;;1.40;;
10100;SDS011;5090;51.258;4.436;2022-07-24T09:24:24;1.60;;;1.40;;
10100;SDS011;5090;51.258;4.436;2022-07-24T09:26:54;1.87;;;1.40;;
10100;SDS011;5090;51.258;4.436;2022-07-24T09:29:24;3.90;;;1.42;;
10100;SDS011;5090;51.258;4.436;2022-07-24T09:31:52;1.73;;;1.30;;
10100;SDS011;5090;51.258;4.436;2022-07-24T09:34:19;3.00;;;1.35;;
10100;SDS011;5090;51.258;4.436;2022-07-24T09:39:22;2.25;;;1.40;;
10100;SDS011;5090;51.258;4.436;2022-07-24T09:41:50;1.30;;;1.10;;
10100;SDS011;5090;51.258;4.436;2022-07-24T09:44:18;2.92;;;1.10;;
10100;SDS011;5090;51.258;4.436;2022-07-24T09:46:47;2.47;;;1.12;;
10100;SDS011;5090;51.258;4.436;2022-07-24T09:49:19;1.33;;;1.12;;
10100;SDS011;5090;51.258;4.436;2022-07-24T09:54:29;1.58;;;1.02;;
10100;SDS011;5090;51.258;4.436;2022-07-24T09:57:12;3.05;;;1.30;;
10100;SDS011;5090;51.258;4.436;2022-07-24T09:59:24;1.80;;;1.20;;
10100;SDS011;5090;51.258;4.436;2022-07-24T10:01:52;5.00;;;1.30;;
10100;SDS011;5090;51.258;4.436;2022-07-24T10:04:20;4.55;;;1.48;;
10100;SDS011;5090;51.258;4.436;2022-07-24T10:06:48;4.65;;;1.35;;
10100;SDS011;5090;51.258;4.436;2022-07-24T10:09:17;1.40;;;1.30;;
10100;SDS011;5090;51.258;4.436;2022-07-24T10:11:45;3.83;;;1.40;;
10100;SDS011;5090;51.258;4.436;2022-07-24T10:14:13;3.05;;;1.40;;
10100;SDS011;5090;51.258;4.436;2022-07-24T10:16:41;2.75;;;1.30;;
10100;SDS011;5090;51.258;4.436;2022-07-24T10:19:10;2.03;;;1.37;;
10100;SDS011;5090;51.258;4.436;2022-07-24T10:21:38;3.37;;;1.48;;
10100;SDS011;5090;51.258;4.436;2022-07-24T10:24:11;3.47;;;1.50;;
10100;SDS011;5090;51.258;4.436;2022-07-24T10:26:40;1.67;;;1.52;;
10100;SDS011;5090;51.258;4.436;2022-07-24T10:29:09;3.33;;;1.40;;
10100;SDS011;5090;51.258;4.436;2022-07-24T10:31:38;5.70;;;1.80;;
10100;SDS011;5090;51.258;4.436;2022-07-24T10:36:57;1.85;;;1.40;;
10100;SDS011;5090;51.258;4.436;2022-07-24T10:39:26;1.60;;;1.50;;
10100;SDS011;5090;51.258;4.436;2022-07-24T10:42:00;3.17;;;1.60;;
10100;SDS011;5090;51.258;4.436;2022-07-24T10:44:29;3.15;;;1.30;;
10100;SDS011;5090;51.258;4.436;2022-07-24T10:47:02;2.97;;;1.70;;
10100;SDS011;5090;51.258;4.436;2022-07-24T10:49:39;2.95;;;1.20;;
10100;SDS011;5090;51.258;4.436;2022-07-24T10:52:04;2.03;;;1.05;;
10100;SDS011;5090;51.258;4.436;2022-07-24T10:54:33;2.20;;;1.52;;
10100;SDS011;5090;51.258;4.436;2022-07-24T10:57:01;2.50;;;1.60;;
10100;SDS011;5090;51.258;4.436;2022-07-24T10:59:33;2.83;;;1.40;;
10100;SDS011;5090;51.258;4.436;2022-07-24T11:02:23;2.35;;;1.35;;
10100;SDS011;5090;51.258;4.436;2022-07-24T11:04:28;3.97;;;1.80;;
10100;SDS011;5090;51.258;4.436;2022-07-24T11:07:12;4.50;;;1.35;;
10100;SDS011;5090;51.258;4.436;2022-07-24T11:12:14;1.90;;;1.42;;
10100;SDS011;5090;51.258;4.436;2022-07-24T11:14:49;3.75;;;1.50;;
10100;SDS011;5090;51.258;4.436;2022-07-24T11:19:55;1.77;;;1.50;;
10100;SDS011;5090;51.258;4.436;2022-07-24T11:22:20;4.53;;;1.60;;
10100;SDS011;5090;51.258;4.436;2022-07-24T11:25:04;2.12;;;1.45;;
10100;SDS011;5090;51.258;4.436;2022-07-24T11:27:23;1.90;;;1.25;;
10100;SDS011;5090;51.258;4.436;2022-07-24T11:29:51;5.55;;;1.98;;
10100;SDS011;5090;51.258;4.436;2022-07-24T11:32:19;2.35;;;1.35;;
10100;SDS011;5090;51.258;4.436;2022-07-24T11:34:49;2.55;;;1.45;;
10100;SDS011;5090;51.258;4.436;2022-07-24T11:37:17;2.25;;;1.60;;
10100;SDS011;5090;51.258;4.436;2022-07-24T11:39:45;3.20;;;1.50;;
10100;SDS011;5090;51.258;4.436;2022-07-24T11:42:14;4.85;;;1.75;;
10100;SDS011;5090;51.258;4.436;2022-07-24T11:44:44;3.83;;;1.37;;
10100;SDS011;5090;51.258;4.436;2022-07-24T11:47:14;2.17;;;1.33;;
10100;SDS011;5090;51.258;4.436;2022-07-24T11:49:46;3.95;;;1.35;;
10100;SDS011;5090;51.258;4.436;2022-07-24T11:52:14;1.92;;;1.27;;
10100;SDS011;5090;51.258;4.436;2022-07-24T11:54:41;2.37;;;1.73;;
10100;SDS011;5090;51.258;4.436;2022-07-24T11:59:43;2.03;;;1.20;;
10100;SDS011;5090;51.258;4.436;2022-07-24T12:02:12;2.25;;;1.30;;
10100;SDS011;5090;51.258;4.436;2022-07-24T12:04:40;1.83;;;1.30;;
10100;SDS011;5090;51.258;4.436;2022-07-24T12:07:09;1.77;;;1.17;;
10100;SDS011;5090;51.258;4.436;2022-07-24T12:09:43;3.37;;;1.20;;
10100;SDS011;5090;51.258;4.436;2022-07-24T12:12:17;1.10;;;1.10;;
10100;SDS011;5090;51.258;4.436;2022-07-24T12:14:45;1.45;;;1.23;;
10100;SDS011;5090;51.258;4.436;2022-07-24T12:17:13;0.80;;;0.80;;
10100;SDS011;5090;51.258;4.436;2022-07-24T12:19:49;2.30;;;1.00;;
10100;SDS011;5090;51.258;4.436;2022-07-24T12:22:09;2.33;;;1.20;;
10100;SDS011;5090;51.258;4.436;2022-07-24T12:24:39;2.78;;;1.23;;
10100;SDS011;5090;51.258;4.436;2022-07-24T12:27:07;1.87;;;1.37;;
10100;SDS011;5090;51.258;4.436;2022-07-24T12:29:40;1.15;;;1.05;;
10100;SDS011;5090;51.258;4.436;2022-07-24T12:34:40;2.42;;;1.35;;
10100;SDS011;5090;51.258;4.436;2022-07-24T12:37:16;2.78;;;1.23;;
10100;SDS011;5090;51.258;4.436;2022-07-24T12:39:45;2.85;;;1.65;;
10100;SDS011;5090;51.258;4.436;2022-07-24T12:42:13;2.70;;;1.12;;
10100;SDS011;5090;51.258;4.436;2022-07-24T12:44:42;4.68;;;1.48;;
10100;SDS011;5090;51.258;4.436;2022-07-24T12:47:10;2.72;;;1.12;;
10100;SDS011;5090;51.258;4.436;2022-07-24T12:49:39;3.80;;;1.45;;
10100;SDS011;5090;51.258;4.436;2022-07-24T12:52:18;3.33;;;1.50;;
10100;SDS011;5090;51.258;4.436;2022-07-24T12:54:36;1.73;;;1.10;;
10100;SDS011;5090;51.258;4.436;2022-07-24T12:57:07;4.22;;;1.50;;
10100;SDS011;5090;51.258;4.436;2022-07-24T12:59:38;5.43;;;1.60;;
10100;SDS011;5090;51.258;4.436;2022-07-24T13:02:07;1.00;;;1.00;;
10100;SDS011;5090;51.258;4.436;2022-07-24T13:04:41;2.90;;;1.23;;
10100;SDS011;5090;51.258;4.436;2022-07-24T13:07:08;2.67;;;1.37;;
10100;SDS011;5090;51.258;4.436;2022-07-24T13:09:37;2.60;;;1.37;;
10100;SDS011;5090;51.258;4.436;2022-07-24T13:12:05;1.42;;;1.20;;
10100;SDS011;5090;51.258;4.436;2022-07-24T13:14:34;1.60;;;1.10;;
10100;SDS011;5090;51.258;4.436;2022-07-24T13:17:03;2.00;;;1.30;;
10100;SDS011;5090;51.258;4.436;2022-07-24T13:19:31;3.87;;;1.30;;
10100;SDS011;5090;51.258;4.436;2022-07-24T13:22:01;1.50;;;1.40;;
10100;SDS011;5090;51.258;4.436;2022-07-24T13:24:30;1.77;;;1.20;;
10100;SDS011;5090;51.258;4.436;2022-07-24T13:26:59;1.35;;;1.25;;
10100;SDS011;5090;51.258;4.436;2022-07-24T13:29:27;2.62;;;1.40;;
10100;SDS011;5090;51.258;4.436;2022-07-24T13:31:56;4.78;;;1.52;;
10100;SDS011;5090;51.258;4.436;2022-07-24T13:34:25;3.17;;;1.50;;
10100;SDS011;5090;51.258;4.436;2022-07-24T13:36:53;1.90;;;1.50;;
10100;SDS011;5090;51.258;4.436;2022-07-24T13:39:22;2.70;;;1.40;;
10100;SDS011;5090;51.258;4.436;2022-07-24T13:41:50;2.35;;;1.35;;
10100;SDS011;5090;51.258;4.436;2022-07-24T13:44:18;1.62;;;1.35;;
10100;SDS011;5090;51.258;4.436;2022-07-24T13:46:47;1.92;;;1.77;;
10100;SDS011;5090;51.258;4.436;2022-07-24T13:49:16;3.22;;;1.70;;
10100;SDS011;5090;51.258;4.436;2022-07-24T13:51:44;2.03;;;1.60;;
10100;SDS011;5090;51.258;4.436;2022-07-24T13:54:12;4.03;;;1.42;;
10100;SDS011;5090;51.258;4.436;2022-07-24T13:56:41;3.70;;;1.77;;
10100;SDS011;5090;51.258;4.436;2022-07-24T13:59:09;2.05;;;1.77;;
10100;SDS011;5090;51.258;4.436;2022-07-24T14:01:38;2.30;;;2.10;;
10100;SDS011;5090;51.258;4.436;2022-07-24T14:04:06;3.65;;;1.85;;
10100;SDS011;5090;51.258;4.436;2022-07-24T14:06:35;2.60;;;2.05;;
10100;SDS011;5090;51.258;4.436;2022-07-24T14:09:03;3.67;;;2.42;;
10100;SDS011;5090;51.258;4.436;2022-07-24T14:11:30;2.75;;;2.03;;
10100;SDS011;5090;51.258;4.436;2022-07-24T14:13:59;3.08;;;1.92;;
10100;SDS011;5090;51.258;4.436;2022-07-24T14:16:27;4.00;;;2.12;;
10100;SDS011;5090;51.258;4.436;2022-07-24T14:18:55;3.53;;;2.28;;
10100;SDS011;5090;51.258;4.436;2022-07-24T14:21:24;2.22;;;2.03;;
10100;SDS011;5090;51.258;4.436;2022-07-24T14:23:52;2.78;;;2.45;;
10100;SDS011;5090;51.258;4.436;2022-07-24T14:26:20;3.78;;;2.08;;
10100;SDS011;5090;51.258;4.436;2022-07-24T14:28:48;2.30;;;1.80;;
10100;SDS011;5090;51.258;4.436;2022-07-24T14:31:17;4.43;;;2.03;;
10100;SDS011;5090;51.258;4.436;2022-07-24T14:33:45;4.53;;;1.95;;
10100;SDS011;5090;51.258;4.436;2022-07-24T14:36:13;2.53;;;1.48;;
10100;SDS011;5090;51.258;4.436;2022-07-24T14:38:41;3.37;;;2.20;;
10100;SDS011;5090;51.258;4.436;2022-07-24T14:41:10;5.12;;;1.77;;
10100;SDS011;5090;51.258;4.436;2022-07-24T14:43:38;2.55;;;1.62;;
10100;SDS011;5090;51.258;4.436;2022-07-24T14:46:06;2.17;;;1.77;;
10100;SDS011;5090;51.258;4.436;2022-07-24T14:48:34;1.90;;;1.40;;
10100;SDS011;5090;51.258;4.436;2022-07-24T14:51:03;3.00;;;2.20;;
10100;SDS011;5090;51.258;4.436;2022-07-24T14:53:31;3.85;;;2.78;;
10100;SDS011;5090;51.258;4.436;2022-07-24T14:55:59;3.47;;;2.17;;
10100;SDS011;5090;51.258;4.436;2022-07-24T14:58:28;5.47;;;2.00;;
10100;SDS011;5090;51.258;4.436;2022-07-24T15:00:56;1.87;;;1.70;;
10100;SDS011;5090;51.258;4.436;2022-07-24T15:03:24;2.60;;;2.40;;
10100;SDS011;5090;51.258;4.436;2022-07-24T15:05:53;3.35;;;1.92;;
10100;SDS011;5090;51.258;4.436;2022-07-24T15:08:21;2.85;;;1.67;;
10100;SDS011;5090;51.258;4.436;2022-07-24T15:10:49;3.83;;;2.10;;
10100;SDS011;5090;51.258;4.436;2022-07-24T15:13:17;4.45;;;2.42;;
10100;SDS011;5090;51.258;4.436;2022-07-24T15:15:46;2.78;;;1.90;;
10100;SDS011;5090;51.258;4.436;2022-07-24T15:18:14;3.10;;;2.00;;
10100;SDS011;5090;51.258;4.436;2022-07-24T15:20:42;3.95;;;2.62;;